Share

Ackley, IA (50601)

Jensen Farm (KIAIOWAF2) Elev 1129 ft | 42.50 °N, 93.20 °W | Change Station

Current weather conditions updated 1 second ago

Scattered Clouds
Scattered Clouds
78.1 °F
Feels Like 79 °F
N
9.0
Wind Variable Wind from South
Gusts 15.0 mph
Sunrise 6:23 AM
Sunset 7:59 PM
Moon Waning Gibbous

Tomorrow is forecast to be Much Cooler than today. Cloudy with rain in the morning.

Pressure 29.94 in
Visibility 10.0 miles
Clouds Scattered Clouds 9000 ft
Heat Index 79 °F
Dew Point 54 °F
Humidity 43%
Rainfall 0.25 in
Snow Depth Not available.
UV 2 out of 16
Pollen 8.50 out of 12
Air Quality Not available.
Flu Activity Sporadic
METAR KIFA 202215Z AUTO 19013KT 10SM SCT090 26/12 A2994 RMK AO2 T02600115

More Conditions Fewer Conditions

Pressure 29.94 in
Visibility 10.0 miles
Clouds Scattered Clouds 9000 ft
Heat Index 79 °F
Dew Point 54 °F
Humidity 43%
Rainfall 0.25 in
Snow Depth Not available.
UV 2 out of 16
Pollen 8.50 out of 12
Air Quality Not available.
Flu Activity Sporadic
METAR KIFA 202215Z AUTO 19013KT 10SM SCT090 26/12 A2994 RMK AO2 T02600115

More Conditions Fewer Conditions

10-Day Weather Forecast

Almanac

Astronomy

Apr. 20, 2014 Rise Set
Actual Time 6:23 AM CDT 7:59 PM CDT
Civil Twilight 5:53 AM CDT 8:29 PM CDT
Nautical Twilight 5:17 AM CDT 9:05 PM CDT
Astronomical Twilight 4:39 AM CDT 9:44 PM CDT
Moon 12:42 AM CDT 10:41 AM CDT
Length of Visible Light 14h 36m
Length of Day
13h 36m
Tomorrow will be 2m 41s longer.
Waning Gibbous, 66% of the Moon is Illuminated
Today
Waning Gibbous
Apr 22
Last Quarter
Apr 29
New
May 6
First Quarter
May 14
Full

Today's Extremes

State Highs State Lows

Community

  • spring skiing mount Baker WA
    spring skiing mount Baker WA
  • Morning Sun
    Morning Sun
  • after rain
    after rain
  • Columbine
    Columbine
  • Easter Sunrise
    Easter Sunrise

WunderPhotos

Upload Photos

1,703,423 photos uploaded!

WunderBlogs® & News

Nearby

Snow Depth

Station Depth Elevation
No new snow has been reported.

Coastal Water Temperatures

Place Temperature
No Stations Reporting

Earthquake Activity

City Distance Mag. Time & Date
No recent earthquake activity has been reported nearby.
Minimum magnitude displayed is 2.5.

Nearby Weather Stations

Station Location Temp. Heat Index Dew Point Humidity Wind Precip. Elev Updated Type
Jensen Farm, Iowa Falls, IA 78.1 °F 79 °F 54 °F 43% South  at  9.0 mph 0.00 in / hr 1129 ft 5:30 PM CDT Rapid Fire
MesoWest ARGON , Bradford, IA 73 °F 71 °F - - North  at  - 0.00 in / hr 1198 ft 4:35 PM CDT MADIS
Meyer Agri-Air, Wellsburg, IA 79.3 °F 80 °F 57 °F 46% SSW  at  14.0 mph 0.00 in / hr 1093 ft 5:29 PM CDT Normal
Beeds Addition, Hampton, IA 73.2 °F 75 °F 64 °F 72% NE  at  5.4 mph 0.00 in / hr 1145 ft 5:30 PM CDT Rapid Fire

Show More Stations Show Fewer Stations

What do you think?

We're not finished. Please let us know what you like, what you don't like, and what you are still missing.